Ashby, Minnesota
Current Conditions -  °F | °C
As of 2:36 AM on Sunday 26 Oct 2014 (Local Time) from KY63 Reporting Station
Clear Clear  
Wind Chill: 37°   Ceiling: Unl
Heat Index: 41°   Visibility: 10mi
Dew Point: 28°   Wind: 6mph
Humidity: 60%   Direction: 140°SE
Pressure: 29.99"   Gusts: NA
Location:  46.09°N, 95.82°W
Report Text: KY63 260736Z AUTO 14005KT 10SM CLR 05/M02 A2999 RMK AO2 T00491022
Loading
Personal Weather Stations






























Interactive Weather Map
Tropical Storm Tracking
New forecast layout! Learn more

10-Day Weather Forecast

Advertisements
Track Severe Weather on mobile